sensor_id;sensor_type;location;lat;lon;timestamp;P1;durP1;ratioP1;P2;durP2;ratioP2
42972;SDS011;28610;51.214;6.962;2022-12-16T00:02:06;81.73;;;34.17;;
42972;SDS011;28610;51.214;6.962;2022-12-16T00:04:51;86.60;;;33.53;;
42972;SDS011;28610;51.214;6.962;2022-12-16T00:07:37;84.70;;;32.50;;
42972;SDS011;28610;51.214;6.962;2022-12-16T00:10:22;75.13;;;31.40;;
42972;SDS011;28610;51.214;6.962;2022-12-16T00:13:08;74.63;;;31.57;;
42972;SDS011;28610;51.214;6.962;2022-12-16T00:15:55;75.20;;;31.13;;
42972;SDS011;28610;51.214;6.962;2022-12-16T00:18:41;76.87;;;32.83;;
42972;SDS011;28610;51.214;6.962;2022-12-16T00:21:27;82.33;;;33.47;;
42972;SDS011;28610;51.214;6.962;2022-12-16T00:24:12;73.00;;;31.50;;
42972;SDS011;28610;51.214;6.962;2022-12-16T00:26:58;89.80;;;34.70;;
42972;SDS011;28610;51.214;6.962;2022-12-16T00:29:43;83.50;;;33.93;;
42972;SDS011;28610;51.214;6.962;2022-12-16T00:32:30;81.73;;;33.20;;
42972;SDS011;28610;51.214;6.962;2022-12-16T00:35:16;77.63;;;32.43;;
42972;SDS011;28610;51.214;6.962;2022-12-16T00:38:01;79.63;;;32.87;;
42972;SDS011;28610;51.214;6.962;2022-12-16T00:40:47;71.83;;;32.33;;
42972;SDS011;28610;51.214;6.962;2022-12-16T00:43:33;80.07;;;32.77;;
42972;SDS011;28610;51.214;6.962;2022-12-16T00:46:18;82.53;;;31.50;;
42972;SDS011;28610;51.214;6.962;2022-12-16T00:49:05;76.47;;;31.10;;
42972;SDS011;28610;51.214;6.962;2022-12-16T00:51:51;84.80;;;33.13;;
42972;SDS011;28610;51.214;6.962;2022-12-16T00:54:36;83.57;;;34.17;;
42972;SDS011;28610;51.214;6.962;2022-12-16T00:57:22;85.30;;;33.37;;
42972;SDS011;28610;51.214;6.962;2022-12-16T01:00:08;84.43;;;33.20;;
42972;SDS011;28610;51.214;6.962;2022-12-16T01:02:55;82.73;;;33.03;;
42972;SDS011;28610;51.214;6.962;2022-12-16T01:05:42;98.00;;;34.33;;
42972;SDS011;28610;51.214;6.962;2022-12-16T01:08:28;74.73;;;31.50;;
42972;SDS011;28610;51.214;6.962;2022-12-16T01:11:13;72.47;;;30.77;;
42972;SDS011;28610;51.214;6.962;2022-12-16T01:14:00;80.07;;;32.97;;
42972;SDS011;28610;51.214;6.962;2022-12-16T01:16:45;79.57;;;31.80;;
42972;SDS011;28610;51.214;6.962;2022-12-16T01:19:31;85.07;;;32.27;;
42972;SDS011;28610;51.214;6.962;2022-12-16T01:22:17;75.47;;;31.20;;
42972;SDS011;28610;51.214;6.962;2022-12-16T01:25:03;81.70;;;32.13;;
42972;SDS011;28610;51.214;6.962;2022-12-16T01:27:49;74.17;;;31.20;;
42972;SDS011;28610;51.214;6.962;2022-12-16T01:30:35;67.90;;;30.20;;
42972;SDS011;28610;51.214;6.962;2022-12-16T01:33:21;73.50;;;30.23;;
42972;SDS011;28610;51.214;6.962;2022-12-16T01:36:07;70.70;;;28.43;;
42972;SDS011;28610;51.214;6.962;2022-12-16T01:38:54;74.47;;;30.33;;
42972;SDS011;28610;51.214;6.962;2022-12-16T01:41:40;75.10;;;30.33;;
42972;SDS011;28610;51.214;6.962;2022-12-16T01:44:25;67.03;;;30.87;;
42972;SDS011;28610;51.214;6.962;2022-12-16T01:47:12;67.57;;;29.30;;
42972;SDS011;28610;51.214;6.962;2022-12-16T01:50:00;69.77;;;28.33;;
42972;SDS011;28610;51.214;6.962;2022-12-16T01:52:47;63.17;;;28.07;;
42972;SDS011;28610;51.214;6.962;2022-12-16T01:55:36;68.67;;;28.07;;
42972;SDS011;28610;51.214;6.962;2022-12-16T01:58:23;66.17;;;28.30;;
42972;SDS011;28610;51.214;6.962;2022-12-16T02:01:10;64.73;;;27.90;;
42972;SDS011;28610;51.214;6.962;2022-12-16T02:03:57;64.67;;;28.57;;
42972;SDS011;28610;51.214;6.962;2022-12-16T02:06:45;71.70;;;28.93;;
42972;SDS011;28610;51.214;6.962;2022-12-16T02:09:31;72.23;;;28.30;;
42972;SDS011;28610;51.214;6.962;2022-12-16T02:12:21;71.97;;;28.50;;
42972;SDS011;28610;51.214;6.962;2022-12-16T02:15:12;77.30;;;30.40;;
42972;SDS011;28610;51.214;6.962;2022-12-16T02:18:04;80.33;;;29.93;;
42972;SDS011;28610;51.214;6.962;2022-12-16T02:33:36;67.50;;;26.87;;
42972;SDS011;28610;51.214;6.962;2022-12-16T02:36:29;68.93;;;28.10;;
42972;SDS011;28610;51.214;6.962;2022-12-16T02:39:19;62.33;;;28.53;;
42972;SDS011;28610;51.214;6.962;2022-12-16T02:42:06;60.37;;;26.70;;
42972;SDS011;28610;51.214;6.962;2022-12-16T02:44:58;66.50;;;28.07;;
42972;SDS011;28610;51.214;6.962;2022-12-16T02:47:44;60.63;;;27.53;;
42972;SDS011;28610;51.214;6.962;2022-12-16T02:50:34;54.87;;;26.67;;
42972;SDS011;28610;51.214;6.962;2022-12-16T02:53:20;61.27;;;26.73;;
42972;SDS011;28610;51.214;6.962;2022-12-16T02:56:11;58.27;;;25.30;;
42972;SDS011;28610;51.214;6.962;2022-12-16T02:59:04;66.60;;;26.70;;
42972;SDS011;28610;51.214;6.962;2022-12-16T03:01:51;61.93;;;26.80;;
42972;SDS011;28610;51.214;6.962;2022-12-16T03:04:40;56.97;;;26.13;;
42972;SDS011;28610;51.214;6.962;2022-12-16T03:07:28;62.93;;;25.73;;
42972;SDS011;28610;51.214;6.962;2022-12-16T03:10:18;63.57;;;27.00;;
42972;SDS011;28610;51.214;6.962;2022-12-16T03:13:06;60.13;;;25.27;;
42972;SDS011;28610;51.214;6.962;2022-12-16T03:15:53;57.33;;;25.73;;
42972;SDS011;28610;51.214;6.962;2022-12-16T03:18:41;58.87;;;25.47;;
42972;SDS011;28610;51.214;6.962;2022-12-16T03:21:28;62.87;;;26.07;;
42972;SDS011;28610;51.214;6.962;2022-12-16T03:24:17;67.47;;;27.50;;
42972;SDS011;28610;51.214;6.962;2022-12-16T03:27:04;58.80;;;25.87;;
42972;SDS011;28610;51.214;6.962;2022-12-16T03:29:52;55.80;;;25.13;;
42972;SDS011;28610;51.214;6.962;2022-12-16T03:32:43;63.70;;;25.57;;
42972;SDS011;28610;51.214;6.962;2022-12-16T03:35:32;53.27;;;24.90;;
42972;SDS011;28610;51.214;6.962;2022-12-16T03:38:20;53.67;;;24.93;;
42972;SDS011;28610;51.214;6.962;2022-12-16T03:41:07;52.43;;;25.30;;
42972;SDS011;28610;51.214;6.962;2022-12-16T03:43:54;56.37;;;24.97;;
42972;SDS011;28610;51.214;6.962;2022-12-16T03:46:40;59.17;;;25.70;;
42972;SDS011;28610;51.214;6.962;2022-12-16T03:49:26;59.90;;;25.63;;
42972;SDS011;28610;51.214;6.962;2022-12-16T03:52:11;60.80;;;25.67;;
42972;SDS011;28610;51.214;6.962;2022-12-16T03:54:57;52.80;;;24.23;;
42972;SDS011;28610;51.214;6.962;2022-12-16T03:57:45;57.33;;;24.23;;
42972;SDS011;28610;51.214;6.962;2022-12-16T04:00:31;56.63;;;24.83;;
42972;SDS011;28610;51.214;6.962;2022-12-16T04:03:17;56.17;;;24.90;;
42972;SDS011;28610;51.214;6.962;2022-12-16T04:06:05;57.03;;;24.40;;
42972;SDS011;28610;51.214;6.962;2022-12-16T04:08:50;61.53;;;25.60;;
42972;SDS011;28610;51.214;6.962;2022-12-16T04:11:36;55.87;;;25.17;;
42972;SDS011;28610;51.214;6.962;2022-12-16T04:14:41;56.83;;;26.50;;
42972;SDS011;28610;51.214;6.962;2022-12-16T04:17:44;51.73;;;25.20;;
42972;SDS011;28610;51.214;6.962;2022-12-16T04:20:49;51.73;;;24.10;;
42972;SDS011;28610;51.214;6.962;2022-12-16T04:23:54;57.80;;;24.57;;
42972;SDS011;28610;51.214;6.962;2022-12-16T04:26:58;53.83;;;23.20;;
42972;SDS011;28610;51.214;6.962;2022-12-16T04:30:04;52.13;;;23.60;;
42972;SDS011;28610;51.214;6.962;2022-12-16T04:33:03;55.47;;;25.57;;
42972;SDS011;28610;51.214;6.962;2022-12-16T04:36:07;58.70;;;24.70;;
42972;SDS011;28610;51.214;6.962;2022-12-16T04:39:11;56.67;;;24.37;;
42972;SDS011;28610;51.214;6.962;2022-12-16T04:42:14;55.90;;;23.43;;
42972;SDS011;28610;51.214;6.962;2022-12-16T04:45:19;58.30;;;24.87;;
42972;SDS011;28610;51.214;6.962;2022-12-16T04:48:22;54.80;;;24.17;;
42972;SDS011;28610;51.214;6.962;2022-12-16T04:51:26;58.43;;;24.43;;
42972;SDS011;28610;51.214;6.962;2022-12-16T04:54:29;50.13;;;22.50;;
42972;SDS011;28610;51.214;6.962;2022-12-16T04:57:33;49.60;;;23.10;;
42972;SDS011;28610;51.214;6.962;2022-12-16T05:00:38;46.77;;;24.03;;
42972;SDS011;28610;51.214;6.962;2022-12-16T05:03:42;49.70;;;22.93;;
42972;SDS011;28610;51.214;6.962;2022-12-16T05:06:45;55.23;;;25.17;;
42972;SDS011;28610;51.214;6.962;2022-12-16T05:09:49;53.50;;;25.23;;
42972;SDS011;28610;51.214;6.962;2022-12-16T05:12:52;62.37;;;24.13;;
42972;SDS011;28610;51.214;6.962;2022-12-16T05:15:57;53.93;;;23.53;;
42972;SDS011;28610;51.214;6.962;2022-12-16T05:19:00;50.63;;;23.60;;
42972;SDS011;28610;51.214;6.962;2022-12-16T05:22:04;50.67;;;21.97;;
42972;SDS011;28610;51.214;6.962;2022-12-16T05:25:07;55.17;;;22.20;;
42972;SDS011;28610;51.214;6.962;2022-12-16T05:28:11;48.27;;;22.40;;
42972;SDS011;28610;51.214;6.962;2022-12-16T05:31:16;49.57;;;22.57;;
42972;SDS011;28610;51.214;6.962;2022-12-16T05:34:20;54.30;;;24.00;;
42972;SDS011;28610;51.214;6.962;2022-12-16T05:37:23;50.60;;;24.53;;
42972;SDS011;28610;51.214;6.962;2022-12-16T05:40:26;53.17;;;23.50;;
42972;SDS011;28610;51.214;6.962;2022-12-16T05:43:30;53.33;;;22.90;;
42972;SDS011;28610;51.214;6.962;2022-12-16T05:46:35;53.67;;;23.30;;
42972;SDS011;28610;51.214;6.962;2022-12-16T05:49:38;50.77;;;22.47;;
42972;SDS011;28610;51.214;6.962;2022-12-16T05:52:46;52.43;;;23.57;;
42972;SDS011;28610;51.214;6.962;2022-12-16T05:55:50;53.73;;;24.53;;
42972;SDS011;28610;51.214;6.962;2022-12-16T05:58:54;54.37;;;25.03;;
42972;SDS011;28610;51.214;6.962;2022-12-16T06:01:58;67.87;;;29.67;;
42972;SDS011;28610;51.214;6.962;2022-12-16T06:05:02;56.23;;;27.43;;
42972;SDS011;28610;51.214;6.962;2022-12-16T06:08:06;55.50;;;24.63;;
42972;SDS011;28610;51.214;6.962;2022-12-16T06:11:10;59.07;;;24.33;;
42972;SDS011;28610;51.214;6.962;2022-12-16T06:14:13;59.13;;;25.10;;
42972;SDS011;28610;51.214;6.962;2022-12-16T06:17:18;56.00;;;24.27;;
42972;SDS011;28610;51.214;6.962;2022-12-16T06:20:21;53.40;;;23.03;;
42972;SDS011;28610;51.214;6.962;2022-12-16T06:23:25;55.93;;;23.97;;
42972;SDS011;28610;51.214;6.962;2022-12-16T06:26:28;59.33;;;28.53;;
42972;SDS011;28610;51.214;6.962;2022-12-16T06:29:31;56.67;;;23.93;;
42972;SDS011;28610;51.214;6.962;2022-12-16T06:32:36;56.17;;;24.10;;
42972;SDS011;28610;51.214;6.962;2022-12-16T06:35:40;58.57;;;26.40;;
42972;SDS011;28610;51.214;6.962;2022-12-16T06:38:43;57.77;;;24.50;;
42972;SDS011;28610;51.214;6.962;2022-12-16T06:41:47;56.90;;;24.20;;
42972;SDS011;28610;51.214;6.962;2022-12-16T06:44:50;56.40;;;24.93;;
42972;SDS011;28610;51.214;6.962;2022-12-16T06:47:55;58.43;;;26.77;;
42972;SDS011;28610;51.214;6.962;2022-12-16T06:50:58;53.30;;;24.57;;
42972;SDS011;28610;51.214;6.962;2022-12-16T06:54:01;54.63;;;23.97;;
42972;SDS011;28610;51.214;6.962;2022-12-16T06:57:05;57.40;;;25.20;;
42972;SDS011;28610;51.214;6.962;2022-12-16T07:00:09;61.50;;;25.00;;
42972;SDS011;28610;51.214;6.962;2022-12-16T07:03:14;62.07;;;26.50;;
42972;SDS011;28610;51.214;6.962;2022-12-16T07:06:17;65.77;;;27.17;;
42972;SDS011;28610;51.214;6.962;2022-12-16T07:09:21;63.67;;;27.93;;
42972;SDS011;28610;51.214;6.962;2022-12-16T07:12:24;63.60;;;27.43;;
42972;SDS011;28610;51.214;6.962;2022-12-16T07:15:28;62.70;;;26.50;;
42972;SDS011;28610;51.214;6.962;2022-12-16T07:18:32;58.60;;;26.00;;
42972;SDS011;28610;51.214;6.962;2022-12-16T07:21:36;58.90;;;25.67;;
42972;SDS011;28610;51.214;6.962;2022-12-16T07:24:40;57.80;;;25.63;;
42972;SDS011;28610;51.214;6.962;2022-12-16T07:27:44;65.53;;;26.80;;
42972;SDS011;28610;51.214;6.962;2022-12-16T07:30:59;52.53;;;24.67;;
42972;SDS011;28610;51.214;6.962;2022-12-16T07:34:03;62.33;;;24.47;;
42972;SDS011;28610;51.214;6.962;2022-12-16T07:37:07;50.13;;;22.33;;
42972;SDS011;28610;51.214;6.962;2022-12-16T07:40:10;54.00;;;22.77;;
42972;SDS011;28610;51.214;6.962;2022-12-16T07:43:14;60.80;;;22.97;;
42972;SDS011;28610;51.214;6.962;2022-12-16T07:46:17;51.47;;;23.43;;
42972;SDS011;28610;51.214;6.962;2022-12-16T07:49:22;64.67;;;26.33;;
42972;SDS011;28610;51.214;6.962;2022-12-16T07:52:25;70.10;;;28.07;;
42972;SDS011;28610;51.214;6.962;2022-12-16T07:55:34;51.77;;;22.97;;
42972;SDS011;28610;51.214;6.962;2022-12-16T07:58:37;56.60;;;23.93;;
42972;SDS011;28610;51.214;6.962;2022-12-16T08:01:41;57.20;;;24.03;;
42972;SDS011;28610;51.214;6.962;2022-12-16T08:04:45;52.83;;;24.33;;
42972;SDS011;28610;51.214;6.962;2022-12-16T08:07:49;51.70;;;24.93;;
42972;SDS011;28610;51.214;6.962;2022-12-16T08:10:52;53.30;;;24.40;;
42972;SDS011;28610;51.214;6.962;2022-12-16T08:13:56;60.17;;;24.60;;
42972;SDS011;28610;51.214;6.962;2022-12-16T08:16:59;56.20;;;24.30;;
42972;SDS011;28610;51.214;6.962;2022-12-16T08:20:04;62.13;;;25.77;;
42972;SDS011;28610;51.214;6.962;2022-12-16T08:23:08;59.40;;;25.57;;
42972;SDS011;28610;51.214;6.962;2022-12-16T08:26:12;53.43;;;24.80;;
42972;SDS011;28610;51.214;6.962;2022-12-16T08:29:15;54.10;;;25.47;;
42972;SDS011;28610;51.214;6.962;2022-12-16T08:32:19;54.97;;;24.03;;
42972;SDS011;28610;51.214;6.962;2022-12-16T08:35:24;54.63;;;24.40;;
42972;SDS011;28610;51.214;6.962;2022-12-16T08:38:27;60.83;;;25.93;;
42972;SDS011;28610;51.214;6.962;2022-12-16T08:41:30;63.87;;;27.30;;
42972;SDS011;28610;51.214;6.962;2022-12-16T08:44:34;58.83;;;25.37;;
42972;SDS011;28610;51.214;6.962;2022-12-16T08:47:37;66.40;;;28.10;;
42972;SDS011;28610;51.214;6.962;2022-12-16T08:50:42;61.53;;;27.63;;
42972;SDS011;28610;51.214;6.962;2022-12-16T08:53:46;59.97;;;26.97;;
42972;SDS011;28610;51.214;6.962;2022-12-16T08:56:49;67.00;;;28.67;;
42972;SDS011;28610;51.214;6.962;2022-12-16T08:59:53;62.63;;;28.40;;
42972;SDS011;28610;51.214;6.962;2022-12-16T09:02:57;62.23;;;29.00;;
42972;SDS011;28610;51.214;6.962;2022-12-16T09:06:02;65.30;;;29.47;;
42972;SDS011;28610;51.214;6.962;2022-12-16T09:09:20;62.47;;;27.63;;
42972;SDS011;28610;51.214;6.962;2022-12-16T09:12:23;57.33;;;27.73;;
42972;SDS011;28610;51.214;6.962;2022-12-16T09:15:27;61.33;;;27.53;;
42972;SDS011;28610;51.214;6.962;2022-12-16T09:18:29;66.43;;;29.70;;
42972;SDS011;28610;51.214;6.962;2022-12-16T09:21:34;69.37;;;29.23;;
42972;SDS011;28610;51.214;6.962;2022-12-16T09:24:37;63.10;;;28.60;;
42972;SDS011;28610;51.214;6.962;2022-12-16T09:27:52;67.13;;;32.00;;
42972;SDS011;28610;51.214;6.962;2022-12-16T09:30:55;70.97;;;31.53;;
42972;SDS011;28610;51.214;6.962;2022-12-16T09:33:59;71.33;;;33.20;;
42972;SDS011;28610;51.214;6.962;2022-12-16T09:37:03;84.07;;;38.03;;
42972;SDS011;28610;51.214;6.962;2022-12-16T09:40:08;76.43;;;34.17;;
42972;SDS011;28610;51.214;6.962;2022-12-16T09:43:16;68.43;;;30.93;;
42972;SDS011;28610;51.214;6.962;2022-12-16T09:46:26;66.03;;;30.23;;
42972;SDS011;28610;51.214;6.962;2022-12-16T09:49:37;70.80;;;31.00;;
42972;SDS011;28610;51.214;6.962;2022-12-16T09:52:45;67.47;;;30.37;;
42972;SDS011;28610;51.214;6.962;2022-12-16T09:55:50;69.67;;;31.03;;
42972;SDS011;28610;51.214;6.962;2022-12-16T09:58:55;68.27;;;31.13;;
42972;SDS011;28610;51.214;6.962;2022-12-16T10:02:00;67.43;;;31.97;;
42972;SDS011;28610;51.214;6.962;2022-12-16T10:05:05;70.43;;;32.93;;
42972;SDS011;28610;51.214;6.962;2022-12-16T10:08:14;67.87;;;31.93;;
42972;SDS011;28610;51.214;6.962;2022-12-16T10:11:22;73.83;;;33.03;;
42972;SDS011;28610;51.214;6.962;2022-12-16T10:14:30;76.70;;;33.63;;
42972;SDS011;28610;51.214;6.962;2022-12-16T10:17:36;70.03;;;31.07;;
42972;SDS011;28610;51.214;6.962;2022-12-16T10:20:43;73.60;;;33.53;;
42972;SDS011;28610;51.214;6.962;2022-12-16T10:23:52;65.17;;;30.60;;
42972;SDS011;28610;51.214;6.962;2022-12-16T10:27:00;69.20;;;32.70;;
42972;SDS011;28610;51.214;6.962;2022-12-16T10:30:09;69.50;;;32.00;;
42972;SDS011;28610;51.214;6.962;2022-12-16T10:33:14;64.47;;;31.87;;
42972;SDS011;28610;51.214;6.962;2022-12-16T10:36:14;72.33;;;32.87;;
42972;SDS011;28610;51.214;6.962;2022-12-16T10:39:23;67.73;;;33.30;;
42972;SDS011;28610;51.214;6.962;2022-12-16T10:42:27;70.57;;;33.27;;
42972;SDS011;28610;51.214;6.962;2022-12-16T10:45:33;69.47;;;33.33;;
42972;SDS011;28610;51.214;6.962;2022-12-16T10:48:38;77.33;;;33.17;;
42972;SDS011;28610;51.214;6.962;2022-12-16T10:51:41;72.77;;;33.90;;
42972;SDS011;28610;51.214;6.962;2022-12-16T10:54:48;69.87;;;32.63;;
42972;SDS011;28610;51.214;6.962;2022-12-16T10:57:55;71.83;;;33.10;;
42972;SDS011;28610;51.214;6.962;2022-12-16T11:01:01;66.33;;;31.53;;
42972;SDS011;28610;51.214;6.962;2022-12-16T11:04:28;70.10;;;32.23;;
42972;SDS011;28610;51.214;6.962;2022-12-16T11:07:32;70.70;;;32.93;;
42972;SDS011;28610;51.214;6.962;2022-12-16T11:10:38;66.27;;;31.97;;
42972;SDS011;28610;51.214;6.962;2022-12-16T11:13:42;69.73;;;33.67;;
42972;SDS011;28610;51.214;6.962;2022-12-16T11:16:45;68.00;;;32.80;;
42972;SDS011;28610;51.214;6.962;2022-12-16T11:19:52;71.60;;;33.83;;
42972;SDS011;28610;51.214;6.962;2022-12-16T11:23:14;69.97;;;32.23;;
42972;SDS011;28610;51.214;6.962;2022-12-16T11:26:19;63.27;;;31.43;;
42972;SDS011;28610;51.214;6.962;2022-12-16T11:29:23;67.03;;;31.77;;
42972;SDS011;28610;51.214;6.962;2022-12-16T11:32:27;69.27;;;32.13;;
42972;SDS011;28610;51.214;6.962;2022-12-16T11:35:31;70.83;;;34.00;;
42972;SDS011;28610;51.214;6.962;2022-12-16T11:38:37;66.83;;;32.10;;
42972;SDS011;28610;51.214;6.962;2022-12-16T11:41:45;76.60;;;33.47;;
42972;SDS011;28610;51.214;6.962;2022-12-16T11:44:50;72.67;;;32.83;;
42972;SDS011;28610;51.214;6.962;2022-12-16T11:47:55;67.20;;;32.83;;
42972;SDS011;28610;51.214;6.962;2022-12-16T11:51:11;78.90;;;34.13;;
42972;SDS011;28610;51.214;6.962;2022-12-16T11:54:18;73.40;;;31.63;;
42972;SDS011;28610;51.214;6.962;2022-12-16T11:57:27;73.00;;;33.50;;
42972;SDS011;28610;51.214;6.962;2022-12-16T12:00:41;71.63;;;32.83;;
42972;SDS011;28610;51.214;6.962;2022-12-16T12:03:48;72.67;;;33.03;;
42972;SDS011;28610;51.214;6.962;2022-12-16T12:06:59;74.67;;;32.77;;
42972;SDS011;28610;51.214;6.962;2022-12-16T12:13:33;68.67;;;32.20;;
42972;SDS011;28610;51.214;6.962;2022-12-16T12:16:42;74.37;;;33.63;;
42972;SDS011;28610;51.214;6.962;2022-12-16T12:19:50;74.57;;;34.00;;
42972;SDS011;28610;51.214;6.962;2022-12-16T12:22:59;72.80;;;33.00;;
42972;SDS011;28610;51.214;6.962;2022-12-16T12:26:08;68.53;;;31.63;;
42972;SDS011;28610;51.214;6.962;2022-12-16T12:29:15;82.60;;;33.83;;
42972;SDS011;28610;51.214;6.962;2022-12-16T12:32:26;72.83;;;33.40;;
42972;SDS011;28610;51.214;6.962;2022-12-16T12:35:35;70.50;;;34.17;;
42972;SDS011;28610;51.214;6.962;2022-12-16T12:38:43;76.03;;;35.07;;
42972;SDS011;28610;51.214;6.962;2022-12-16T12:41:54;77.90;;;35.63;;
42972;SDS011;28610;51.214;6.962;2022-12-16T12:45:03;73.37;;;34.63;;
42972;SDS011;28610;51.214;6.962;2022-12-16T12:48:11;72.20;;;34.47;;
42972;SDS011;28610;51.214;6.962;2022-12-16T12:51:17;78.40;;;35.30;;
42972;SDS011;28610;51.214;6.962;2022-12-16T12:54:25;75.97;;;34.53;;
42972;SDS011;28610;51.214;6.962;2022-12-16T12:57:33;80.83;;;36.57;;
42972;SDS011;28610;51.214;6.962;2022-12-16T13:00:40;77.03;;;34.97;;
42972;SDS011;28610;51.214;6.962;2022-12-16T13:03:46;75.57;;;34.80;;
42972;SDS011;28610;51.214;6.962;2022-12-16T13:06:50;72.47;;;35.07;;
42972;SDS011;28610;51.214;6.962;2022-12-16T13:10:11;81.10;;;36.47;;
42972;SDS011;28610;51.214;6.962;2022-12-16T13:13:32;80.40;;;37.63;;
42972;SDS011;28610;51.214;6.962;2022-12-16T13:19:45;80.17;;;36.73;;
42972;SDS011;28610;51.214;6.962;2022-12-16T13:22:54;80.53;;;37.70;;
42972;SDS011;28610;51.214;6.962;2022-12-16T13:26:02;83.43;;;37.07;;
42972;SDS011;28610;51.214;6.962;2022-12-16T13:29:07;81.70;;;38.80;;
42972;SDS011;28610;51.214;6.962;2022-12-16T13:32:17;83.30;;;38.47;;
42972;SDS011;28610;51.214;6.962;2022-12-16T13:35:22;80.27;;;37.50;;
42972;SDS011;28610;51.214;6.962;2022-12-16T13:38:26;81.47;;;37.43;;
42972;SDS011;28610;51.214;6.962;2022-12-16T13:41:47;75.53;;;37.00;;
42972;SDS011;28610;51.214;6.962;2022-12-16T13:44:53;87.07;;;38.83;;
42972;SDS011;28610;51.214;6.962;2022-12-16T13:47:58;88.63;;;39.27;;
42972;SDS011;28610;51.214;6.962;2022-12-16T13:51:03;83.37;;;38.10;;
42972;SDS011;28610;51.214;6.962;2022-12-16T13:54:07;80.00;;;37.80;;
42972;SDS011;28610;51.214;6.962;2022-12-16T13:57:10;81.03;;;37.77;;
42972;SDS011;28610;51.214;6.962;2022-12-16T14:00:16;90.80;;;41.07;;
42972;SDS011;28610;51.214;6.962;2022-12-16T14:03:21;90.03;;;39.30;;
42972;SDS011;28610;51.214;6.962;2022-12-16T14:06:28;81.30;;;37.17;;
42972;SDS011;28610;51.214;6.962;2022-12-16T14:09:34;84.73;;;37.90;;
42972;SDS011;28610;51.214;6.962;2022-12-16T14:12:41;81.93;;;38.10;;
42972;SDS011;28610;51.214;6.962;2022-12-16T14:15:48;89.57;;;38.50;;
42972;SDS011;28610;51.214;6.962;2022-12-16T14:18:57;95.47;;;41.10;;
42972;SDS011;28610;51.214;6.962;2022-12-16T14:22:07;88.67;;;39.30;;
42972;SDS011;28610;51.214;6.962;2022-12-16T14:25:17;93.40;;;39.40;;
42972;SDS011;28610;51.214;6.962;2022-12-16T14:28:22;95.27;;;39.97;;
42972;SDS011;28610;51.214;6.962;2022-12-16T14:31:28;95.53;;;39.43;;
42972;SDS011;28610;51.214;6.962;2022-12-16T14:34:32;96.23;;;41.37;;
42972;SDS011;28610;51.214;6.962;2022-12-16T14:37:37;104.23;;;41.63;;
42972;SDS011;28610;51.214;6.962;2022-12-16T14:40:41;111.27;;;40.87;;
42972;SDS011;28610;51.214;6.962;2022-12-16T14:43:44;103.33;;;42.07;;
42972;SDS011;28610;51.214;6.962;2022-12-16T14:46:47;108.13;;;40.20;;
42972;SDS011;28610;51.214;6.962;2022-12-16T14:49:52;121.27;;;44.27;;
42972;SDS011;28610;51.214;6.962;2022-12-16T14:53:09;112.37;;;42.30;;
42972;SDS011;28610;51.214;6.962;2022-12-16T14:56:14;117.07;;;43.87;;
42972;SDS011;28610;51.214;6.962;2022-12-16T14:59:18;119.93;;;42.70;;
42972;SDS011;28610;51.214;6.962;2022-12-16T15:02:24;107.80;;;41.17;;
42972;SDS011;28610;51.214;6.962;2022-12-16T15:05:31;120.57;;;43.90;;
42972;SDS011;28610;51.214;6.962;2022-12-16T15:08:38;126.60;;;44.70;;
42972;SDS011;28610;51.214;6.962;2022-12-16T15:11:43;135.67;;;46.47;;
42972;SDS011;28610;51.214;6.962;2022-12-16T15:15:02;145.90;;;46.47;;
42972;SDS011;28610;51.214;6.962;2022-12-16T15:18:09;156.60;;;49.73;;
42972;SDS011;28610;51.214;6.962;2022-12-16T15:21:18;205.67;;;60.80;;
42972;SDS011;28610;51.214;6.962;2022-12-16T15:24:23;257.23;;;52.00;;
42972;SDS011;28610;51.214;6.962;2022-12-16T15:27:32;197.20;;;54.70;;
42972;SDS011;28610;51.214;6.962;2022-12-16T15:30:36;168.60;;;48.27;;
42972;SDS011;28610;51.214;6.962;2022-12-16T15:33:40;160.93;;;49.37;;
42972;SDS011;28610;51.214;6.962;2022-12-16T15:36:47;163.17;;;50.30;;
42972;SDS011;28610;51.214;6.962;2022-12-16T15:39:52;160.60;;;47.93;;
42972;SDS011;28610;51.214;6.962;2022-12-16T15:42:52;197.47;;;50.47;;
42972;SDS011;28610;51.214;6.962;2022-12-16T15:45:56;194.17;;;50.40;;
42972;SDS011;28610;51.214;6.962;2022-12-16T15:49:00;189.43;;;52.07;;
42972;SDS011;28610;51.214;6.962;2022-12-16T15:55:25;221.63;;;53.93;;
42972;SDS011;28610;51.214;6.962;2022-12-16T15:58:30;500.67;;;54.97;;
42972;SDS011;28610;51.214;6.962;2022-12-16T16:01:38;242.47;;;51.27;;
42972;SDS011;28610;51.214;6.962;2022-12-16T16:04:42;186.87;;;49.27;;
42972;SDS011;28610;51.214;6.962;2022-12-16T16:07:45;215.83;;;50.00;;
42972;SDS011;28610;51.214;6.962;2022-12-16T16:10:50;219.73;;;49.67;;
42972;SDS011;28610;51.214;6.962;2022-12-16T16:13:54;273.57;;;69.37;;
42972;SDS011;28610;51.214;6.962;2022-12-16T16:16:57;254.20;;;61.90;;
42972;SDS011;28610;51.214;6.962;2022-12-16T16:20:01;245.20;;;52.77;;
42972;SDS011;28610;51.214;6.962;2022-12-16T16:23:04;184.40;;;53.33;;
42972;SDS011;28610;51.214;6.962;2022-12-16T16:26:09;481.60;;;56.60;;
42972;SDS011;28610;51.214;6.962;2022-12-16T16:29:13;225.33;;;54.03;;
42972;SDS011;28610;51.214;6.962;2022-12-16T16:32:16;225.33;;;55.30;;
42972;SDS011;28610;51.214;6.962;2022-12-16T16:35:19;184.00;;;44.97;;
42972;SDS011;28610;51.214;6.962;2022-12-16T16:38:23;199.43;;;48.27;;
42972;SDS011;28610;51.214;6.962;2022-12-16T16:41:28;347.70;;;55.77;;
42972;SDS011;28610;51.214;6.962;2022-12-16T16:44:31;333.37;;;53.73;;
42972;SDS011;28610;51.214;6.962;2022-12-16T16:47:34;244.97;;;50.13;;
42972;SDS011;28610;51.214;6.962;2022-12-16T16:50:38;412.50;;;57.80;;
42972;SDS011;28610;51.214;6.962;2022-12-16T16:53:41;371.87;;;52.37;;
42972;SDS011;28610;51.214;6.962;2022-12-16T16:56:46;656.60;;;64.83;;
42972;SDS011;28610;51.214;6.962;2022-12-16T16:59:49;376.47;;;50.10;;
42972;SDS011;28610;51.214;6.962;2022-12-16T17:02:53;364.23;;;50.50;;
42972;SDS011;28610;51.214;6.962;2022-12-16T17:05:56;464.13;;;55.53;;
42972;SDS011;28610;51.214;6.962;2022-12-16T17:09:00;414.97;;;52.77;;
42972;SDS011;28610;51.214;6.962;2022-12-16T17:12:10;255.63;;;52.20;;
42972;SDS011;28610;51.214;6.962;2022-12-16T17:15:17;356.70;;;58.27;;
42972;SDS011;28610;51.214;6.962;2022-12-16T17:18:21;296.53;;;51.87;;
42972;SDS011;28610;51.214;6.962;2022-12-16T17:21:25;317.50;;;53.83;;
42972;SDS011;28610;51.214;6.962;2022-12-16T17:24:28;334.20;;;55.87;;
42972;SDS011;28610;51.214;6.962;2022-12-16T17:27:33;268.20;;;51.00;;
42972;SDS011;28610;51.214;6.962;2022-12-16T17:30:36;239.57;;;52.13;;
42972;SDS011;28610;51.214;6.962;2022-12-16T17:33:40;231.70;;;51.50;;
42972;SDS011;28610;51.214;6.962;2022-12-16T17:36:43;223.93;;;53.33;;
42972;SDS011;28610;51.214;6.962;2022-12-16T17:39:47;314.03;;;49.57;;
42972;SDS011;28610;51.214;6.962;2022-12-16T17:42:51;555.20;;;59.40;;
42972;SDS011;28610;51.214;6.962;2022-12-16T17:45:56;368.90;;;50.67;;
42972;SDS011;28610;51.214;6.962;2022-12-16T17:48:59;284.17;;;46.30;;
42972;SDS011;28610;51.214;6.962;2022-12-16T17:52:03;210.63;;;45.87;;
42972;SDS011;28610;51.214;6.962;2022-12-16T17:55:07;308.13;;;47.87;;
42972;SDS011;28610;51.214;6.962;2022-12-16T17:58:12;309.33;;;45.80;;